N123SM KISP-KFRG
Flight info
| Callsign | N123SM |
|---|---|
| Flight time | N/A |
| Altitude | VFR |
| Route | SVD VFF |
| Aircraft | DA42/L-VGD/C |
Departure
| Time | 2026-04-28 16:29 |
|---|---|
| Airport | Long Island MacArthur Airport (KISP) |
Arrival
| Time | N/A |
|---|---|
| Airport | Republic Airport (KFRG) |
| Time | Latitude | Longitude | Altitude | Speed | Heading |
|---|---|---|---|---|---|
| 2026-04-28 16:22 | 40.79653 | -73.10829 | 91 ft | 0 kts | 359° |
| 2026-04-28 16:23 | 40.79659 | -73.10785 | 89 ft | 2 kts | 103° |
| 2026-04-28 16:23 | 40.79658 | -73.10781 | 89 ft | 3 kts | 93° |
| 2026-04-28 16:24 | 40.79680 | -73.10773 | 89 ft | 10 kts | 5° |
| 2026-04-28 16:24 | 40.79737 | -73.10720 | 91 ft | 17 kts | 7° |
| 2026-04-28 16:24 | 40.79857 | -73.10720 | 89 ft | 22 kts | 360° |
| 2026-04-28 16:24 | 40.80006 | -73.10721 | 89 ft | 23 kts | 359° |
| 2026-04-28 16:25 | 40.80117 | -73.10718 | 88 ft | 14 kts | 14° |
| 2026-04-28 16:25 | 40.80124 | -73.10606 | 88 ft | 18 kts | 143° |
| 2026-04-28 16:25 | 40.80001 | -73.10442 | 90 ft | 30 kts | 135° |
| 2026-04-28 16:25 | 40.79897 | -73.10305 | 93 ft | 15 kts | 133° |
| 2026-04-28 16:26 | 40.79831 | -73.10217 | 92 ft | 13 kts | 135° |
| 2026-04-28 16:26 | 40.79809 | -73.10188 | 92 ft | 0 kts | 135° |
| 2026-04-28 16:27 | 40.79808 | -73.10187 | 92 ft | 0 kts | 135° |
| 2026-04-28 16:27 | 40.79778 | -73.10145 | 93 ft | 10 kts | 135° |
| 2026-04-28 16:28 | 40.79727 | -73.10115 | 94 ft | 12 kts | 201° |
| 2026-04-28 16:28 | 40.79529 | -73.10373 | 94 ft | 69 kts | 226° |
| 2026-04-28 16:28 | 40.79145 | -73.10888 | 306 ft | 87 kts | 220° |
| 2026-04-28 16:28 | 40.78654 | -73.11454 | 599 ft | 99 kts | 219° |
| 2026-04-28 16:29 | 40.77533 | -73.12736 | 1181 ft | 118 kts | 229° |
| 2026-04-28 16:29 | 40.76344 | -73.14449 | 1295 ft | 139 kts | 224° |
| 2026-04-28 16:30 | 40.75601 | -73.15315 | 1335 ft | 141 kts | 214° |
| 2026-04-28 16:30 | 40.74842 | -73.16086 | 1543 ft | 134 kts | 218° |
| 2026-04-28 16:30 | 40.74079 | -73.16776 | 1675 ft | 136 kts | 206° |
| 2026-04-28 16:30 | 40.73227 | -73.17356 | 1786 ft | 138 kts | 217° |
| 2026-04-28 16:31 | 40.72659 | -73.18249 | 1930 ft | 124 kts | 239° |
| 2026-04-28 16:31 | 40.72349 | -73.19307 | 1698 ft | 125 kts | 253° |
| 2026-04-28 16:31 | 40.72160 | -73.20463 | 1437 ft | 128 kts | 263° |
| 2026-04-28 16:31 | 40.72075 | -73.21651 | 1151 ft | 131 kts | 265° |
| 2026-04-28 16:32 | 40.72021 | -73.22863 | 1072 ft | 138 kts | 267° |
| 2026-04-28 16:32 | 40.72081 | -73.25480 | 1179 ft | 147 kts | 273° |
| 2026-04-28 16:32 | 40.72173 | -73.26835 | 1158 ft | 147 kts | 275° |
| 2026-04-28 16:33 | 40.72301 | -73.28175 | 1067 ft | 147 kts | 277° |
| 2026-04-28 16:33 | 40.72407 | -73.29046 | 1044 ft | 145 kts | 279° |
| 2026-04-28 16:33 | 40.72712 | -73.30736 | 1002 ft | 141 kts | 284° |
| 2026-04-28 16:33 | 40.73010 | -73.31929 | 869 ft | 133 kts | 289° |
| 2026-04-28 16:34 | 40.73359 | -73.33028 | 769 ft | 129 kts | 292° |
| 2026-04-28 16:34 | 40.73801 | -73.34006 | 725 ft | 123 kts | 303° |
| 2026-04-28 16:34 | 40.74242 | -73.34985 | 692 ft | 128 kts | 284° |
| 2026-04-28 16:34 | 40.74332 | -73.36185 | 801 ft | 134 kts | 271° |
| 2026-04-28 16:35 | 40.74416 | -73.37482 | 769 ft | 148 kts | 275° |
| 2026-04-28 16:35 | 40.74496 | -73.38862 | 801 ft | 152 kts | 271° |
| 2026-04-28 16:35 | 40.74584 | -73.40182 | 581 ft | 126 kts | 273° |
| 2026-04-28 16:35 | 40.74533 | -73.41162 | 457 ft | 89 kts | 238° |
| 2026-04-28 16:36 | 40.74019 | -73.41473 | 212 ft | 85 kts | 180° |
| 2026-04-28 16:36 | 40.73470 | -73.41449 | 80 ft | 64 kts | 180° |
| 2026-04-28 16:36 | 40.73060 | -73.41444 | 82 ft | 71 kts | 175° |
| 2026-04-28 16:36 | 40.72538 | -73.41419 | 263 ft | 85 kts | 178° |
| 2026-04-28 16:37 | 40.71862 | -73.41250 | 420 ft | 110 kts | 165° |
| 2026-04-28 16:37 | 40.71137 | -73.40939 | 737 ft | 114 kts | 157° |
| 2026-04-28 16:37 | 40.70799 | -73.40061 | 1039 ft | 125 kts | 83° |
| 2026-04-28 16:38 | 40.71402 | -73.37641 | 1333 ft | 146 kts | 64° |
| 2026-04-28 16:38 | 40.71803 | -73.36463 | 1566 ft | 144 kts | 82° |
| 2026-04-28 16:38 | 40.71890 | -73.35111 | 1607 ft | 155 kts | 88° |
| 2026-04-28 16:38 | 40.72003 | -73.33771 | 1287 ft | 142 kts | 85° |
| 2026-04-28 16:39 | 40.72117 | -73.32507 | 1054 ft | 139 kts | 87° |
| 2026-04-28 16:39 | 40.72227 | -73.31226 | 846 ft | 141 kts | 86° |
| 2026-04-28 16:39 | 40.72322 | -73.29909 | 767 ft | 145 kts | 85° |
| 2026-04-28 16:39 | 40.72419 | -73.28641 | 867 ft | 139 kts | 87° |
| 2026-04-28 16:40 | 40.72502 | -73.27315 | 779 ft | 146 kts | 86° |
| 2026-04-28 16:40 | 40.72715 | -73.26042 | 866 ft | 139 kts | 59° |
| 2026-04-28 16:40 | 40.73461 | -73.25293 | 960 ft | 136 kts | 27° |
| 2026-04-28 16:40 | 40.74348 | -73.24807 | 989 ft | 138 kts | 21° |
| 2026-04-28 16:41 | 40.75186 | -73.24212 | 1074 ft | 140 kts | 40° |
| 2026-04-28 16:41 | 40.75824 | -73.23206 | 1114 ft | 148 kts | 58° |
| 2026-04-28 16:41 | 40.76337 | -73.22001 | 1149 ft | 153 kts | 61° |
| 2026-04-28 16:41 | 40.76882 | -73.20825 | 1166 ft | 148 kts | 57° |
| 2026-04-28 16:42 | 40.77491 | -73.19750 | 1257 ft | 142 kts | 52° |
| 2026-04-28 16:42 | 40.78122 | -73.18803 | 1228 ft | 141 kts | 46° |
| 2026-04-28 16:42 | 40.78827 | -73.17901 | 1263 ft | 142 kts | 43° |
| 2026-04-28 16:42 | 40.79574 | -73.17011 | 1198 ft | 146 kts | 41° |
| 2026-04-28 16:43 | 40.80354 | -73.16172 | 1200 ft | 145 kts | 40° |
| 2026-04-28 16:43 | 40.81046 | -73.15175 | 1018 ft | 149 kts | 55° |
| 2026-04-28 16:43 | 40.81645 | -73.14058 | 874 ft | 149 kts | 56° |
| 2026-04-28 16:43 | 40.82259 | -73.12956 | 805 ft | 149 kts | 53° |
| 2026-04-28 16:44 | 40.82927 | -73.11874 | 720 ft | 150 kts | 51° |
| 2026-04-28 16:44 | 40.83601 | -73.10900 | 850 ft | 142 kts | 48° |
| 2026-04-28 16:44 | 40.84318 | -73.09943 | 784 ft | 149 kts | 45° |
| 2026-04-28 16:44 | 40.84833 | -73.08822 | 900 ft | 144 kts | 84° |
| 2026-04-28 16:45 | 40.84583 | -73.07641 | 1073 ft | 130 kts | 122° |
| 2026-04-28 16:45 | 40.83929 | -73.06876 | 1138 ft | 133 kts | 155° |
| 2026-04-28 16:45 | 40.83076 | -73.06741 | 1205 ft | 110 kts | 183° |
| 2026-04-28 16:45 | 40.82428 | -73.06978 | 969 ft | 96 kts | 204° |
| 2026-04-28 16:46 | 40.81840 | -73.07462 | 807 ft | 103 kts | 216° |
| 2026-04-28 16:46 | 40.81307 | -73.08046 | 575 ft | 90 kts | 221° |
| 2026-04-28 16:46 | 40.80885 | -73.08601 | 381 ft | 86 kts | 222° |
| 2026-04-28 16:46 | 40.80459 | -73.09156 | 219 ft | 86 kts | 221° |
| 2026-04-28 16:47 | 40.80057 | -73.09677 | 107 ft | 72 kts | 221° |
| 2026-04-28 16:47 | 40.79800 | -73.10015 | 94 ft | 31 kts | 225° |
| 2026-04-28 16:47 | 40.79677 | -73.10194 | 95 ft | 17 kts | 260° |
| 2026-04-28 16:47 | 40.79719 | -73.10280 | 90 ft | 1 kts | 307° |
| 2026-04-28 16:48 | 40.79743 | -73.10312 | 90 ft | 17 kts | 313° |
| 2026-04-28 16:48 | 40.79828 | -73.10423 | 90 ft | 17 kts | 315° |
| 2026-04-28 16:48 | 40.79910 | -73.10533 | 89 ft | 17 kts | 312° |
| 2026-04-28 16:49 | 40.79985 | -73.10630 | 89 ft | 14 kts | 318° |
| 2026-04-28 16:49 | 40.80045 | -73.10710 | 89 ft | 12 kts | 319° |
| 2026-04-28 16:49 | 40.80080 | -73.10776 | 91 ft | 6 kts | 287° |
| 2026-04-28 16:49 | 40.80107 | -73.10861 | 90 ft | 15 kts | 287° |
| 2026-04-28 16:50 | 40.80123 | -73.10949 | 89 ft | 12 kts | 264° |
| 2026-04-28 16:50 | 40.80126 | -73.10987 | 90 ft | 3 kts | 93° |
| 2026-04-28 16:50 | 40.80124 | -73.10954 | 93 ft | 0 kts | 93° |
| 2026-04-28 16:50 | 40.80124 | -73.10945 | 93 ft | 0 kts | 90° |